sensor_id;sensor_type;location;lat;lon;timestamp;temperature;humidity
19292;DHT22;9779;51.756;7.450;2024-03-02T00:00:08;7.30;1.00
19292;DHT22;9779;51.756;7.450;2024-03-02T00:02:47;7.30;1.00
19292;DHT22;9779;51.756;7.450;2024-03-02T00:05:20;7.30;1.00
19292;DHT22;9779;51.756;7.450;2024-03-02T00:07:55;7.30;1.00
19292;DHT22;9779;51.756;7.450;2024-03-02T00:10:36;7.30;1.00
19292;DHT22;9779;51.756;7.450;2024-03-02T00:13:05;7.30;65.50
19292;DHT22;9779;51.756;7.450;2024-03-02T00:18:07;7.30;46.40
19292;DHT22;9779;51.756;7.450;2024-03-02T00:20:33;7.30;71.10
19292;DHT22;9779;51.756;7.450;2024-03-02T00:23:06;7.30;61.00
19292;DHT22;9779;51.756;7.450;2024-03-02T00:25:42;7.30;79.30
19292;DHT22;9779;51.756;7.450;2024-03-02T00:28:35;7.30;99.90
19292;DHT22;9779;51.756;7.450;2024-03-02T00:31:11;7.30;99.90
19292;DHT22;9779;51.756;7.450;2024-03-02T00:33:47;7.30;99.90
19292;DHT22;9779;51.756;7.450;2024-03-02T00:36:24;7.30;99.90
19292;DHT22;9779;51.756;7.450;2024-03-02T00:38:51;7.30;99.90
19292;DHT22;9779;51.756;7.450;2024-03-02T00:41:31;7.30;99.90
19292;DHT22;9779;51.756;7.450;2024-03-02T00:44:03;7.20;99.90
19292;DHT22;9779;51.756;7.450;2024-03-02T00:49:04;7.20;99.90
19292;DHT22;9779;51.756;7.450;2024-03-02T00:51:32;7.20;99.90
19292;DHT22;9779;51.756;7.450;2024-03-02T00:54:03;7.20;99.90
19292;DHT22;9779;51.756;7.450;2024-03-02T00:56:30;7.20;99.90
19292;DHT22;9779;51.756;7.450;2024-03-02T00:58:56;7.20;1.00
19292;DHT22;9779;51.756;7.450;2024-03-02T01:01:22;7.20;1.00
19292;DHT22;9779;51.756;7.450;2024-03-02T01:03:48;7.20;1.00
19292;DHT22;9779;51.756;7.450;2024-03-02T01:06:17;7.20;99.90
19292;DHT22;9779;51.756;7.450;2024-03-02T01:08:43;7.10;99.90
19292;DHT22;9779;51.756;7.450;2024-03-02T01:11:09;7.10;99.90
19292;DHT22;9779;51.756;7.450;2024-03-02T01:13:34;7.10;99.90
19292;DHT22;9779;51.756;7.450;2024-03-02T01:16:03;7.10;99.90
19292;DHT22;9779;51.756;7.450;2024-03-02T01:18:29;7.10;99.90
19292;DHT22;9779;51.756;7.450;2024-03-02T01:20:56;7.00;99.90
19292;DHT22;9779;51.756;7.450;2024-03-02T01:23:22;7.00;1.00
19292;DHT22;9779;51.756;7.450;2024-03-02T01:25:48;7.00;1.00
19292;DHT22;9779;51.756;7.450;2024-03-02T01:28:15;7.10;99.90
19292;DHT22;9779;51.756;7.450;2024-03-02T01:30:40;7.10;99.90
19292;DHT22;9779;51.756;7.450;2024-03-02T01:33:06;7.10;99.90
19292;DHT22;9779;51.756;7.450;2024-03-02T01:35:32;7.10;99.90
19292;DHT22;9779;51.756;7.450;2024-03-02T01:37:58;7.10;99.90
19292;DHT22;9779;51.756;7.450;2024-03-02T01:40:24;7.20;99.90
19292;DHT22;9779;51.756;7.450;2024-03-02T01:42:54;7.20;99.90
19292;DHT22;9779;51.756;7.450;2024-03-02T01:45:20;7.20;99.90
19292;DHT22;9779;51.756;7.450;2024-03-02T01:47:46;7.20;99.90
19292;DHT22;9779;51.756;7.450;2024-03-02T01:50:11;7.20;99.90
19292;DHT22;9779;51.756;7.450;2024-03-02T01:52:37;7.20;34.80
19292;DHT22;9779;51.756;7.450;2024-03-02T01:55:03;7.20;1.00
19292;DHT22;9779;51.756;7.450;2024-03-02T01:57:29;7.30;1.00
19292;DHT22;9779;51.756;7.450;2024-03-02T01:59:55;7.30;1.00
19292;DHT22;9779;51.756;7.450;2024-03-02T02:02:21;7.30;1.00
19292;DHT22;9779;51.756;7.450;2024-03-02T02:04:47;7.30;1.00
19292;DHT22;9779;51.756;7.450;2024-03-02T02:07:12;7.30;1.00
19292;DHT22;9779;51.756;7.450;2024-03-02T02:09:41;7.30;1.00
19292;DHT22;9779;51.756;7.450;2024-03-02T02:12:07;7.40;1.00
19292;DHT22;9779;51.756;7.450;2024-03-02T02:14:33;7.40;1.00
19292;DHT22;9779;51.756;7.450;2024-03-02T02:16:59;7.40;1.00
19292;DHT22;9779;51.756;7.450;2024-03-02T02:19:25;7.40;1.00
19292;DHT22;9779;51.756;7.450;2024-03-02T02:21:50;7.40;1.00
19292;DHT22;9779;51.756;7.450;2024-03-02T02:24:16;7.40;99.90
19292;DHT22;9779;51.756;7.450;2024-03-02T02:26:41;7.40;99.90
19292;DHT22;9779;51.756;7.450;2024-03-02T02:29:07;7.40;99.90
19292;DHT22;9779;51.756;7.450;2024-03-02T02:31:40;7.40;99.90
19292;DHT22;9779;51.756;7.450;2024-03-02T02:34:06;7.40;99.90
19292;DHT22;9779;51.756;7.450;2024-03-02T02:36:38;7.40;99.90
19292;DHT22;9779;51.756;7.450;2024-03-02T02:39:06;7.40;99.90
19292;DHT22;9779;51.756;7.450;2024-03-02T02:41:33;7.40;99.90
19292;DHT22;9779;51.756;7.450;2024-03-02T02:43:58;7.40;99.90
19292;DHT22;9779;51.756;7.450;2024-03-02T02:46:24;7.40;99.90
19292;DHT22;9779;51.756;7.450;2024-03-02T02:48:49;7.40;99.90
19292;DHT22;9779;51.756;7.450;2024-03-02T02:51:17;7.40;99.90
19292;DHT22;9779;51.756;7.450;2024-03-02T02:53:42;7.40;99.90
19292;DHT22;9779;51.756;7.450;2024-03-02T02:56:08;7.40;99.90
19292;DHT22;9779;51.756;7.450;2024-03-02T02:58:34;7.40;99.90
19292;DHT22;9779;51.756;7.450;2024-03-02T03:01:00;7.40;99.90
19292;DHT22;9779;51.756;7.450;2024-03-02T03:03:29;7.40;99.90
19292;DHT22;9779;51.756;7.450;2024-03-02T03:05:55;7.40;99.90
19292;DHT22;9779;51.756;7.450;2024-03-02T03:08:21;7.30;99.90
19292;DHT22;9779;51.756;7.450;2024-03-02T03:10:48;7.40;99.90
19292;DHT22;9779;51.756;7.450;2024-03-02T03:13:15;7.40;99.90
19292;DHT22;9779;51.756;7.450;2024-03-02T03:15:40;7.40;99.90
19292;DHT22;9779;51.756;7.450;2024-03-02T03:18:06;7.40;99.90
19292;DHT22;9779;51.756;7.450;2024-03-02T03:20:33;7.40;99.90
19292;DHT22;9779;51.756;7.450;2024-03-02T03:22:59;7.40;99.90
19292;DHT22;9779;51.756;7.450;2024-03-02T03:25:25;7.40;99.90
19292;DHT22;9779;51.756;7.450;2024-03-02T03:27:51;7.50;99.90
19292;DHT22;9779;51.756;7.450;2024-03-02T03:30:19;7.40;99.90
19292;DHT22;9779;51.756;7.450;2024-03-02T03:32:45;7.50;99.90
19292;DHT22;9779;51.756;7.450;2024-03-02T03:35:11;7.40;99.90
19292;DHT22;9779;51.756;7.450;2024-03-02T03:37:38;7.50;99.90
19292;DHT22;9779;51.756;7.450;2024-03-02T03:40:04;7.50;99.90
19292;DHT22;9779;51.756;7.450;2024-03-02T03:42:36;7.50;99.90
19292;DHT22;9779;51.756;7.450;2024-03-02T03:45:02;7.50;99.90
19292;DHT22;9779;51.756;7.450;2024-03-02T03:47:28;7.40;99.90
19292;DHT22;9779;51.756;7.450;2024-03-02T03:49:53;7.50;99.90
19292;DHT22;9779;51.756;7.450;2024-03-02T03:52:19;7.50;99.90
19292;DHT22;9779;51.756;7.450;2024-03-02T03:54:44;7.50;99.90
19292;DHT22;9779;51.756;7.450;2024-03-02T03:57:10;7.50;99.90
19292;DHT22;9779;51.756;7.450;2024-03-02T03:59:36;7.50;99.90
19292;DHT22;9779;51.756;7.450;2024-03-02T04:02:03;7.50;99.90
19292;DHT22;9779;51.756;7.450;2024-03-02T04:04:29;7.50;99.90
19292;DHT22;9779;51.756;7.450;2024-03-02T04:06:54;7.50;99.90
19292;DHT22;9779;51.756;7.450;2024-03-02T04:09:20;7.50;99.90
19292;DHT22;9779;51.756;7.450;2024-03-02T04:11:45;7.50;99.90
19292;DHT22;9779;51.756;7.450;2024-03-02T04:14:11;7.50;1.00
19292;DHT22;9779;51.756;7.450;2024-03-02T04:16:38;7.50;1.00
19292;DHT22;9779;51.756;7.450;2024-03-02T04:19:04;7.50;11.30
19292;DHT22;9779;51.756;7.450;2024-03-02T04:21:30;7.50;1.00
19292;DHT22;9779;51.756;7.450;2024-03-02T04:23:56;7.50;1.00
19292;DHT22;9779;51.756;7.450;2024-03-02T04:26:24;7.60;1.00
19292;DHT22;9779;51.756;7.450;2024-03-02T04:28:51;7.50;1.00
19292;DHT22;9779;51.756;7.450;2024-03-02T04:31:16;7.50;1.00
19292;DHT22;9779;51.756;7.450;2024-03-02T04:33:42;7.50;1.00
19292;DHT22;9779;51.756;7.450;2024-03-02T04:36:08;7.50;1.00
19292;DHT22;9779;51.756;7.450;2024-03-02T04:38:35;7.40;1.00
19292;DHT22;9779;51.756;7.450;2024-03-02T04:41:01;7.40;1.00
19292;DHT22;9779;51.756;7.450;2024-03-02T04:43:26;7.40;1.00
19292;DHT22;9779;51.756;7.450;2024-03-02T04:45:52;7.40;1.00
19292;DHT22;9779;51.756;7.450;2024-03-02T04:48:18;7.30;1.00
19292;DHT22;9779;51.756;7.450;2024-03-02T04:50:44;7.30;1.00
19292;DHT22;9779;51.756;7.450;2024-03-02T04:53:10;7.30;1.00
19292;DHT22;9779;51.756;7.450;2024-03-02T04:55:36;7.30;1.00
19292;DHT22;9779;51.756;7.450;2024-03-02T04:58:04;7.20;1.00
19292;DHT22;9779;51.756;7.450;2024-03-02T05:00:30;7.20;17.40
19292;DHT22;9779;51.756;7.450;2024-03-02T05:02:56;7.20;72.60
19292;DHT22;9779;51.756;7.450;2024-03-02T05:05:21;7.10;75.90
19292;DHT22;9779;51.756;7.450;2024-03-02T05:07:47;7.10;99.90
19292;DHT22;9779;51.756;7.450;2024-03-02T05:10:13;7.10;99.90
19292;DHT22;9779;51.756;7.450;2024-03-02T05:12:40;7.10;99.90
19292;DHT22;9779;51.756;7.450;2024-03-02T05:15:09;7.10;99.90
19292;DHT22;9779;51.756;7.450;2024-03-02T05:17:36;7.00;99.90
19292;DHT22;9779;51.756;7.450;2024-03-02T05:20:02;7.00;99.90
19292;DHT22;9779;51.756;7.450;2024-03-02T05:22:28;7.00;99.90
19292;DHT22;9779;51.756;7.450;2024-03-02T05:24:54;7.00;99.90
19292;DHT22;9779;51.756;7.450;2024-03-02T05:27:19;7.00;99.90
19292;DHT22;9779;51.756;7.450;2024-03-02T05:29:45;6.90;99.90
19292;DHT22;9779;51.756;7.450;2024-03-02T05:32:11;6.90;99.90
19292;DHT22;9779;51.756;7.450;2024-03-02T05:34:36;6.90;99.90
19292;DHT22;9779;51.756;7.450;2024-03-02T05:49:12;6.80;99.90
19292;DHT22;9779;51.756;7.450;2024-03-02T05:51:38;6.70;99.90
19292;DHT22;9779;51.756;7.450;2024-03-02T05:54:03;6.60;99.90
19292;DHT22;9779;51.756;7.450;2024-03-02T05:56:29;6.50;99.90
19292;DHT22;9779;51.756;7.450;2024-03-02T05:58:54;6.50;1.00
19292;DHT22;9779;51.756;7.450;2024-03-02T06:01:33;6.50;1.00
19292;DHT22;9779;51.756;7.450;2024-03-02T06:03:59;6.40;1.00
19292;DHT22;9779;51.756;7.450;2024-03-02T06:06:25;6.40;1.00
19292;DHT22;9779;51.756;7.450;2024-03-02T06:08:51;6.30;1.00
19292;DHT22;9779;51.756;7.450;2024-03-02T06:11:17;6.30;1.00
19292;DHT22;9779;51.756;7.450;2024-03-02T06:13:43;6.30;1.00
19292;DHT22;9779;51.756;7.450;2024-03-02T06:16:08;6.30;1.00
19292;DHT22;9779;51.756;7.450;2024-03-02T06:18:34;6.20;1.00
19292;DHT22;9779;51.756;7.450;2024-03-02T06:21:00;6.20;1.00
19292;DHT22;9779;51.756;7.450;2024-03-02T06:23:28;6.10;1.00
19292;DHT22;9779;51.756;7.450;2024-03-02T06:25:54;6.10;43.10
19292;DHT22;9779;51.756;7.450;2024-03-02T06:28:20;6.10;99.90
19292;DHT22;9779;51.756;7.450;2024-03-02T06:30:46;6.10;99.90
19292;DHT22;9779;51.756;7.450;2024-03-02T06:33:11;6.10;99.90
19292;DHT22;9779;51.756;7.450;2024-03-02T06:35:37;6.10;99.90
19292;DHT22;9779;51.756;7.450;2024-03-02T06:38:03;6.00;99.90
19292;DHT22;9779;51.756;7.450;2024-03-02T06:40:29;6.00;1.00
19292;DHT22;9779;51.756;7.450;2024-03-02T06:42:54;6.00;1.00
19292;DHT22;9779;51.756;7.450;2024-03-02T06:45:20;5.90;1.00
19292;DHT22;9779;51.756;7.450;2024-03-02T06:47:46;6.00;1.00
19292;DHT22;9779;51.756;7.450;2024-03-02T06:50:11;6.00;1.00
19292;DHT22;9779;51.756;7.450;2024-03-02T06:52:37;6.00;1.00
19292;DHT22;9779;51.756;7.450;2024-03-02T06:55:03;6.00;43.70
19292;DHT22;9779;51.756;7.450;2024-03-02T06:57:29;6.00;99.90
19292;DHT22;9779;51.756;7.450;2024-03-02T06:59:55;6.00;99.90
19292;DHT22;9779;51.756;7.450;2024-03-02T07:02:24;6.00;99.90
19292;DHT22;9779;51.756;7.450;2024-03-02T07:04:55;6.00;99.90
19292;DHT22;9779;51.756;7.450;2024-03-02T07:07:20;6.00;99.90
19292;DHT22;9779;51.756;7.450;2024-03-02T07:09:46;6.00;1.00
19292;DHT22;9779;51.756;7.450;2024-03-02T07:12:13;6.00;1.00
19292;DHT22;9779;51.756;7.450;2024-03-02T07:14:39;6.00;1.00
19292;DHT22;9779;51.756;7.450;2024-03-02T07:17:37;6.00;1.00
19292;DHT22;9779;51.756;7.450;2024-03-02T07:20:03;6.00;95.50
19292;DHT22;9779;51.756;7.450;2024-03-02T07:22:32;6.00;99.90
19292;DHT22;9779;51.756;7.450;2024-03-02T07:24:58;6.00;1.00
19292;DHT22;9779;51.756;7.450;2024-03-02T07:27:24;6.00;1.00
19292;DHT22;9779;51.756;7.450;2024-03-02T07:29:49;6.10;1.00
19292;DHT22;9779;51.756;7.450;2024-03-02T07:32:15;6.10;1.00
19292;DHT22;9779;51.756;7.450;2024-03-02T07:34:41;6.10;88.40
19292;DHT22;9779;51.756;7.450;2024-03-02T07:37:06;6.20;99.90
19292;DHT22;9779;51.756;7.450;2024-03-02T07:39:32;6.20;99.90
19292;DHT22;9779;51.756;7.450;2024-03-02T07:41:58;6.20;1.00
19292;DHT22;9779;51.756;7.450;2024-03-02T07:44:23;6.20;1.00
19292;DHT22;9779;51.756;7.450;2024-03-02T07:46:49;6.20;1.00
19292;DHT22;9779;51.756;7.450;2024-03-02T07:49:15;6.30;1.00
19292;DHT22;9779;51.756;7.450;2024-03-02T07:51:42;6.30;1.00
19292;DHT22;9779;51.756;7.450;2024-03-02T07:54:08;6.30;1.00
19292;DHT22;9779;51.756;7.450;2024-03-02T07:56:34;6.40;1.00
19292;DHT22;9779;51.756;7.450;2024-03-02T07:59:00;6.40;1.00
19292;DHT22;9779;51.756;7.450;2024-03-02T08:01:33;6.40;1.00
19292;DHT22;9779;51.756;7.450;2024-03-02T08:04:02;6.50;1.00
19292;DHT22;9779;51.756;7.450;2024-03-02T08:06:31;6.50;1.00
19292;DHT22;9779;51.756;7.450;2024-03-02T08:08:58;6.50;99.90
19292;DHT22;9779;51.756;7.450;2024-03-02T08:11:24;6.60;1.00
19292;DHT22;9779;51.756;7.450;2024-03-02T08:13:50;6.60;1.00
19292;DHT22;9779;51.756;7.450;2024-03-02T08:16:17;6.70;1.00
19292;DHT22;9779;51.756;7.450;2024-03-02T08:18:47;6.70;11.50
19292;DHT22;9779;51.756;7.450;2024-03-02T08:21:13;6.80;99.90
19292;DHT22;9779;51.756;7.450;2024-03-02T08:23:39;6.90;1.00
19292;DHT22;9779;51.756;7.450;2024-03-02T08:26:06;6.90;94.80
19292;DHT22;9779;51.756;7.450;2024-03-02T08:28:32;7.00;1.00
19292;DHT22;9779;51.756;7.450;2024-03-02T08:30:58;7.00;1.00
19292;DHT22;9779;51.756;7.450;2024-03-02T08:33:24;7.10;1.00
19292;DHT22;9779;51.756;7.450;2024-03-02T08:35:49;7.20;99.90
19292;DHT22;9779;51.756;7.450;2024-03-02T08:38:15;7.30;99.90
19292;DHT22;9779;51.756;7.450;2024-03-02T08:40:41;7.40;1.00
19292;DHT22;9779;51.756;7.450;2024-03-02T08:43:07;7.50;1.00
19292;DHT22;9779;51.756;7.450;2024-03-02T08:45:32;7.50;1.00
19292;DHT22;9779;51.756;7.450;2024-03-02T08:48:00;7.60;99.90
19292;DHT22;9779;51.756;7.450;2024-03-02T08:50:25;7.70;1.00
19292;DHT22;9779;51.756;7.450;2024-03-02T08:52:51;7.80;1.00
19292;DHT22;9779;51.756;7.450;2024-03-02T08:55:17;7.90;99.90
19292;DHT22;9779;51.756;7.450;2024-03-02T08:57:42;8.00;1.00
19292;DHT22;9779;51.756;7.450;2024-03-02T09:00:08;8.00;99.90
19292;DHT22;9779;51.756;7.450;2024-03-02T09:02:34;8.10;1.00
19292;DHT22;9779;51.756;7.450;2024-03-02T09:05:01;8.10;99.90
19292;DHT22;9779;51.756;7.450;2024-03-02T09:07:26;8.20;99.90
19292;DHT22;9779;51.756;7.450;2024-03-02T09:09:52;8.20;56.20
19292;DHT22;9779;51.756;7.450;2024-03-02T09:12:18;8.40;1.00
19292;DHT22;9779;51.756;7.450;2024-03-02T09:14:45;8.60;1.00
19292;DHT22;9779;51.756;7.450;2024-03-02T09:17:11;8.70;1.00
19292;DHT22;9779;51.756;7.450;2024-03-02T09:19:37;8.70;99.90
19292;DHT22;9779;51.756;7.450;2024-03-02T09:22:03;8.80;99.90
19292;DHT22;9779;51.756;7.450;2024-03-02T09:24:31;8.90;99.90
19292;DHT22;9779;51.756;7.450;2024-03-02T09:26:56;9.00;99.90
19292;DHT22;9779;51.756;7.450;2024-03-02T09:29:22;9.10;99.90
19292;DHT22;9779;51.756;7.450;2024-03-02T09:31:48;9.10;1.00
19292;DHT22;9779;51.756;7.450;2024-03-02T09:34:15;9.30;1.00
19292;DHT22;9779;51.756;7.450;2024-03-02T09:36:41;9.30;1.00
19292;DHT22;9779;51.756;7.450;2024-03-02T09:39:09;9.30;1.00
19292;DHT22;9779;51.756;7.450;2024-03-02T09:41:38;9.40;1.00
19292;DHT22;9779;51.756;7.450;2024-03-02T09:44:07;9.50;1.00
19292;DHT22;9779;51.756;7.450;2024-03-02T09:46:32;9.60;1.00
19292;DHT22;9779;51.756;7.450;2024-03-02T09:48:58;9.60;99.90
19292;DHT22;9779;51.756;7.450;2024-03-02T09:51:24;9.70;99.90
19292;DHT22;9779;51.756;7.450;2024-03-02T09:53:50;9.70;1.00
19292;DHT22;9779;51.756;7.450;2024-03-02T09:56:16;9.90;99.90
19292;DHT22;9779;51.756;7.450;2024-03-02T09:58:42;10.00;99.90
19292;DHT22;9779;51.756;7.450;2024-03-02T10:01:09;10.10;96.70
19292;DHT22;9779;51.756;7.450;2024-03-02T10:03:37;10.20;3.50
19292;DHT22;9779;51.756;7.450;2024-03-02T10:08:47;10.30;1.00
19292;DHT22;9779;51.756;7.450;2024-03-02T10:11:32;10.40;1.00
19292;DHT22;9779;51.756;7.450;2024-03-02T10:16:38;10.60;1.00
19292;DHT22;9779;51.756;7.450;2024-03-02T10:19:22;10.70;1.00
19292;DHT22;9779;51.756;7.450;2024-03-02T10:21:54;10.70;1.00
19292;DHT22;9779;51.756;7.450;2024-03-02T10:24:22;10.80;1.00
19292;DHT22;9779;51.756;7.450;2024-03-02T10:26:51;10.90;99.90
19292;DHT22;9779;51.756;7.450;2024-03-02T10:29:18;10.90;99.90
19292;DHT22;9779;51.756;7.450;2024-03-02T10:31:45;11.00;99.90
19292;DHT22;9779;51.756;7.450;2024-03-02T10:34:12;11.10;99.90
19292;DHT22;9779;51.756;7.450;2024-03-02T10:36:42;11.10;99.90
19292;DHT22;9779;51.756;7.450;2024-03-02T10:39:08;11.20;99.90
19292;DHT22;9779;51.756;7.450;2024-03-02T10:41:35;11.30;99.90
19292;DHT22;9779;51.756;7.450;2024-03-02T10:44:05;11.30;99.90
19292;DHT22;9779;51.756;7.450;2024-03-02T10:46:33;11.40;99.90
19292;DHT22;9779;51.756;7.450;2024-03-02T10:49:00;11.40;99.90
19292;DHT22;9779;51.756;7.450;2024-03-02T10:51:27;11.50;91.00
19292;DHT22;9779;51.756;7.450;2024-03-02T10:53:54;11.60;83.60
19292;DHT22;9779;51.756;7.450;2024-03-02T11:01:47;11.80;1.00
19292;DHT22;9779;51.756;7.450;2024-03-02T11:04:16;11.90;1.00
19292;DHT22;9779;51.756;7.450;2024-03-02T11:06:49;12.00;1.00
19292;DHT22;9779;51.756;7.450;2024-03-02T11:09:19;12.00;1.00
19292;DHT22;9779;51.756;7.450;2024-03-02T11:12:03;12.10;1.00
19292;DHT22;9779;51.756;7.450;2024-03-02T11:14:31;12.10;1.00
19292;DHT22;9779;51.756;7.450;2024-03-02T11:16:58;12.30;1.00
19292;DHT22;9779;51.756;7.450;2024-03-02T11:26:52;12.80;99.90
19292;DHT22;9779;51.756;7.450;2024-03-02T11:32:06;13.00;1.00
19292;DHT22;9779;51.756;7.450;2024-03-02T11:34:33;13.10;1.00
19292;DHT22;9779;51.756;7.450;2024-03-02T11:37:02;13.20;1.00
19292;DHT22;9779;51.756;7.450;2024-03-02T11:39:28;13.30;1.00
19292;DHT22;9779;51.756;7.450;2024-03-02T11:41:57;13.30;1.00
19292;DHT22;9779;51.756;7.450;2024-03-02T11:44:27;13.40;1.00
19292;DHT22;9779;51.756;7.450;2024-03-02T11:46:59;13.60;1.00
19292;DHT22;9779;51.756;7.450;2024-03-02T11:49:44;13.60;1.00
19292;DHT22;9779;51.756;7.450;2024-03-02T11:52:15;13.80;1.00
19292;DHT22;9779;51.756;7.450;2024-03-02T11:54:47;13.70;1.00
19292;DHT22;9779;51.756;7.450;2024-03-02T11:57:22;13.90;1.00
19292;DHT22;9779;51.756;7.450;2024-03-02T11:59:48;14.10;1.00
19292;DHT22;9779;51.756;7.450;2024-03-02T12:02:20;14.30;1.00
19292;DHT22;9779;51.756;7.450;2024-03-02T12:04:47;14.30;1.00
19292;DHT22;9779;51.756;7.450;2024-03-02T12:07:19;14.50;1.00
19292;DHT22;9779;51.756;7.450;2024-03-02T12:09:46;14.60;1.00
19292;DHT22;9779;51.756;7.450;2024-03-02T12:12:12;14.70;1.00
19292;DHT22;9779;51.756;7.450;2024-03-02T12:14:53;14.80;1.00
19292;DHT22;9779;51.756;7.450;2024-03-02T12:17:21;14.70;1.00
19292;DHT22;9779;51.756;7.450;2024-03-02T12:19:47;14.80;1.00
19292;DHT22;9779;51.756;7.450;2024-03-02T12:22:13;15.00;1.00
19292;DHT22;9779;51.756;7.450;2024-03-02T12:24:41;15.10;1.00
19292;DHT22;9779;51.756;7.450;2024-03-02T12:27:07;15.20;1.00
19292;DHT22;9779;51.756;7.450;2024-03-02T12:29:34;15.00;99.90
19292;DHT22;9779;51.756;7.450;2024-03-02T12:32:00;15.10;1.00
19292;DHT22;9779;51.756;7.450;2024-03-02T12:34:28;15.00;99.90
19292;DHT22;9779;51.756;7.450;2024-03-02T12:36:53;15.20;99.90
19292;DHT22;9779;51.756;7.450;2024-03-02T12:39:19;15.20;99.90
19292;DHT22;9779;51.756;7.450;2024-03-02T12:44:19;15.40;1.00
19292;DHT22;9779;51.756;7.450;2024-03-02T12:46:46;15.60;99.90
19292;DHT22;9779;51.756;7.450;2024-03-02T12:49:13;15.50;99.90
19292;DHT22;9779;51.756;7.450;2024-03-02T12:51:40;15.50;99.90
19292;DHT22;9779;51.756;7.450;2024-03-02T12:54:07;15.40;99.90
19292;DHT22;9779;51.756;7.450;2024-03-02T13:23:29;16.10;99.90
19292;DHT22;9779;51.756;7.450;2024-03-02T13:25:57;16.20;99.90
19292;DHT22;9779;51.756;7.450;2024-03-02T13:28:24;16.20;99.90
19292;DHT22;9779;51.756;7.450;2024-03-02T13:30:49;16.20;99.90
19292;DHT22;9779;51.756;7.450;2024-03-02T13:33:15;16.20;99.90
19292;DHT22;9779;51.756;7.450;2024-03-02T13:35:41;16.20;99.90
19292;DHT22;9779;51.756;7.450;2024-03-02T13:38:06;16.30;99.90
19292;DHT22;9779;51.756;7.450;2024-03-02T13:40:32;16.40;99.90
19292;DHT22;9779;51.756;7.450;2024-03-02T13:43:01;16.60;99.90
19292;DHT22;9779;51.756;7.450;2024-03-02T13:45:27;16.50;99.90
19292;DHT22;9779;51.756;7.450;2024-03-02T13:47:53;16.50;99.90
19292;DHT22;9779;51.756;7.450;2024-03-02T13:50:19;16.20;99.90
19292;DHT22;9779;51.756;7.450;2024-03-02T13:52:45;16.30;99.90
19292;DHT22;9779;51.756;7.450;2024-03-02T13:55:11;16.30;99.90
19292;DHT22;9779;51.756;7.450;2024-03-02T13:57:37;16.20;99.90
19292;DHT22;9779;51.756;7.450;2024-03-02T14:00:03;16.20;99.90
19292;DHT22;9779;51.756;7.450;2024-03-02T14:02:35;16.20;99.90
19292;DHT22;9779;51.756;7.450;2024-03-02T14:05:01;16.30;99.90
19292;DHT22;9779;51.756;7.450;2024-03-02T14:07:27;16.10;99.90
19292;DHT22;9779;51.756;7.450;2024-03-02T14:09:52;16.00;99.90
19292;DHT22;9779;51.756;7.450;2024-03-02T14:12:18;16.00;99.90
19292;DHT22;9779;51.756;7.450;2024-03-02T14:14:44;15.90;99.90
19292;DHT22;9779;51.756;7.450;2024-03-02T14:17:09;16.00;99.90
19292;DHT22;9779;51.756;7.450;2024-03-02T14:19:40;16.10;99.90
19292;DHT22;9779;51.756;7.450;2024-03-02T14:22:05;16.30;99.90
19292;DHT22;9779;51.756;7.450;2024-03-02T14:24:31;16.60;99.90
19292;DHT22;9779;51.756;7.450;2024-03-02T14:26:57;16.80;99.90
19292;DHT22;9779;51.756;7.450;2024-03-02T14:29:28;17.00;99.90
19292;DHT22;9779;51.756;7.450;2024-03-02T14:31:54;17.10;99.90
19292;DHT22;9779;51.756;7.450;2024-03-02T14:34:20;17.00;99.90
19292;DHT22;9779;51.756;7.450;2024-03-02T14:36:45;16.90;99.90
19292;DHT22;9779;51.756;7.450;2024-03-02T14:39:11;16.80;99.90
19292;DHT22;9779;51.756;7.450;2024-03-02T14:41:37;16.80;99.90
19292;DHT22;9779;51.756;7.450;2024-03-02T14:44:03;16.80;99.90
19292;DHT22;9779;51.756;7.450;2024-03-02T14:46:29;16.60;99.90
19292;DHT22;9779;51.756;7.450;2024-03-02T14:48:55;16.60;99.90
19292;DHT22;9779;51.756;7.450;2024-03-02T14:51:20;16.60;99.90
19292;DHT22;9779;51.756;7.450;2024-03-02T14:53:46;16.70;99.90
19292;DHT22;9779;51.756;7.450;2024-03-02T14:56:12;16.60;99.90
19292;DHT22;9779;51.756;7.450;2024-03-02T14:58:39;16.40;99.90
19292;DHT22;9779;51.756;7.450;2024-03-02T15:01:05;16.30;99.90
19292;DHT22;9779;51.756;7.450;2024-03-02T15:03:35;16.30;99.90
19292;DHT22;9779;51.756;7.450;2024-03-02T15:06:01;16.40;99.90
19292;DHT22;9779;51.756;7.450;2024-03-02T15:08:28;16.30;99.90
19292;DHT22;9779;51.756;7.450;2024-03-02T15:10:53;16.10;99.90
19292;DHT22;9779;51.756;7.450;2024-03-02T15:13:21;15.90;99.90
19292;DHT22;9779;51.756;7.450;2024-03-02T15:15:47;15.70;99.90
19292;DHT22;9779;51.756;7.450;2024-03-02T15:18:13;15.60;99.90
19292;DHT22;9779;51.756;7.450;2024-03-02T15:20:39;15.50;99.90
19292;DHT22;9779;51.756;7.450;2024-03-02T15:23:05;15.40;99.90
19292;DHT22;9779;51.756;7.450;2024-03-02T15:25:31;15.30;99.90
19292;DHT22;9779;51.756;7.450;2024-03-02T15:27:56;15.20;99.90
19292;DHT22;9779;51.756;7.450;2024-03-02T15:30:22;15.20;99.90
19292;DHT22;9779;51.756;7.450;2024-03-02T15:32:48;15.10;99.90
19292;DHT22;9779;51.756;7.450;2024-03-02T15:35:13;15.10;99.90
19292;DHT22;9779;51.756;7.450;2024-03-02T15:37:39;15.10;99.90
19292;DHT22;9779;51.756;7.450;2024-03-02T15:40:05;15.00;99.90
19292;DHT22;9779;51.756;7.450;2024-03-02T15:42:35;15.20;99.90
19292;DHT22;9779;51.756;7.450;2024-03-02T15:45:01;15.10;99.90
19292;DHT22;9779;51.756;7.450;2024-03-02T15:47:26;15.00;99.90
19292;DHT22;9779;51.756;7.450;2024-03-02T15:49:52;15.00;99.90
19292;DHT22;9779;51.756;7.450;2024-03-02T15:52:18;15.00;99.90
19292;DHT22;9779;51.756;7.450;2024-03-02T15:54:45;14.90;99.90
19292;DHT22;9779;51.756;7.450;2024-03-02T15:57:10;14.80;99.90
19292;DHT22;9779;51.756;7.450;2024-03-02T15:59:36;14.80;99.90
19292;DHT22;9779;51.756;7.450;2024-03-02T16:02:02;14.70;99.90
19292;DHT22;9779;51.756;7.450;2024-03-02T16:04:29;14.60;99.90
19292;DHT22;9779;51.756;7.450;2024-03-02T16:06:55;14.50;99.90
19292;DHT22;9779;51.756;7.450;2024-03-02T16:09:20;14.50;99.90
19292;DHT22;9779;51.756;7.450;2024-03-02T16:11:46;14.50;99.90
19292;DHT22;9779;51.756;7.450;2024-03-02T16:14:13;14.40;99.90
19292;DHT22;9779;51.756;7.450;2024-03-02T16:16:39;14.40;99.90
19292;DHT22;9779;51.756;7.450;2024-03-02T16:19:05;14.40;99.90
19292;DHT22;9779;51.756;7.450;2024-03-02T16:21:31;14.30;99.90
19292;DHT22;9779;51.756;7.450;2024-03-02T16:23:57;14.30;99.90
19292;DHT22;9779;51.756;7.450;2024-03-02T16:26:23;14.30;99.90
19292;DHT22;9779;51.756;7.450;2024-03-02T16:28:49;14.30;99.90
19292;DHT22;9779;51.756;7.450;2024-03-02T16:31:15;14.20;99.90
19292;DHT22;9779;51.756;7.450;2024-03-02T16:33:46;14.20;99.90
19292;DHT22;9779;51.756;7.450;2024-03-02T16:36:12;14.10;99.90
19292;DHT22;9779;51.756;7.450;2024-03-02T16:38:38;14.10;99.90
19292;DHT22;9779;51.756;7.450;2024-03-02T16:41:04;14.00;99.90
19292;DHT22;9779;51.756;7.450;2024-03-02T16:43:30;14.00;99.90
19292;DHT22;9779;51.756;7.450;2024-03-02T16:45:56;14.00;99.90
19292;DHT22;9779;51.756;7.450;2024-03-02T16:48:21;13.90;99.90
19292;DHT22;9779;51.756;7.450;2024-03-02T16:50:47;13.80;99.90
19292;DHT22;9779;51.756;7.450;2024-03-02T16:53:13;13.80;99.90
19292;DHT22;9779;51.756;7.450;2024-03-02T16:55:43;13.80;99.90
19292;DHT22;9779;51.756;7.450;2024-03-02T16:58:09;13.70;99.90
19292;DHT22;9779;51.756;7.450;2024-03-02T17:00:35;13.60;99.90
19292;DHT22;9779;51.756;7.450;2024-03-02T17:03:00;13.50;99.90
19292;DHT22;9779;51.756;7.450;2024-03-02T17:05:26;13.40;99.90
19292;DHT22;9779;51.756;7.450;2024-03-02T17:07:52;13.40;99.90